sensor_id;sensor_type;location;lat;lon;timestamp;P1;durP1;ratioP1;P2;durP2;ratioP2
2868;SDS011;1442;47.448;8.582;2023-09-19T00:00:30;2.42;;;1.52;;
2868;SDS011;1442;47.448;8.582;2023-09-19T00:02:58;2.50;;;1.40;;
2868;SDS011;1442;47.448;8.582;2023-09-19T00:05:27;3.28;;;1.30;;
2868;SDS011;1442;47.448;8.582;2023-09-19T00:07:55;1.90;;;1.30;;
2868;SDS011;1442;47.448;8.582;2023-09-19T00:10:23;1.80;;;1.10;;
2868;SDS011;1442;47.448;8.582;2023-09-19T00:12:52;3.88;;;1.52;;
2868;SDS011;1442;47.448;8.582;2023-09-19T00:15:20;2.72;;;1.42;;
2868;SDS011;1442;47.448;8.582;2023-09-19T00:17:47;3.43;;;1.70;;
2868;SDS011;1442;47.448;8.582;2023-09-19T00:20:17;2.38;;;1.33;;
2868;SDS011;1442;47.448;8.582;2023-09-19T00:22:47;3.33;;;1.50;;
2868;SDS011;1442;47.448;8.582;2023-09-19T00:25:15;3.97;;;1.58;;
2868;SDS011;1442;47.448;8.582;2023-09-19T00:27:43;3.30;;;1.60;;
2868;SDS011;1442;47.448;8.582;2023-09-19T00:30:12;1.95;;;1.35;;
2868;SDS011;1442;47.448;8.582;2023-09-19T00:32:44;3.23;;;1.53;;
2868;SDS011;1442;47.448;8.582;2023-09-19T00:35:12;4.00;;;1.40;;
2868;SDS011;1442;47.448;8.582;2023-09-19T00:37:40;1.93;;;1.40;;
2868;SDS011;1442;47.448;8.582;2023-09-19T00:40:09;3.50;;;1.55;;
2868;SDS011;1442;47.448;8.582;2023-09-19T00:42:37;2.75;;;1.70;;
2868;SDS011;1442;47.448;8.582;2023-09-19T00:45:06;2.72;;;1.45;;
2868;SDS011;1442;47.448;8.582;2023-09-19T00:47:34;2.27;;;1.40;;
2868;SDS011;1442;47.448;8.582;2023-09-19T00:50:03;3.37;;;1.50;;
2868;SDS011;1442;47.448;8.582;2023-09-19T00:52:32;2.10;;;1.40;;
2868;SDS011;1442;47.448;8.582;2023-09-19T00:55:01;2.70;;;1.50;;
2868;SDS011;1442;47.448;8.582;2023-09-19T00:57:30;3.67;;;1.70;;
2868;SDS011;1442;47.448;8.582;2023-09-19T00:59:58;2.40;;;1.55;;
2868;SDS011;1442;47.448;8.582;2023-09-19T01:02:30;4.68;;;1.60;;
2868;SDS011;1442;47.448;8.582;2023-09-19T01:04:58;2.65;;;1.30;;
2868;SDS011;1442;47.448;8.582;2023-09-19T01:07:26;3.00;;;1.63;;
2868;SDS011;1442;47.448;8.582;2023-09-19T01:09:55;2.87;;;1.50;;
2868;SDS011;1442;47.448;8.582;2023-09-19T01:12:25;4.28;;;1.65;;
2868;SDS011;1442;47.448;8.582;2023-09-19T01:14:58;2.72;;;1.40;;
2868;SDS011;1442;47.448;8.582;2023-09-19T01:17:30;3.15;;;1.40;;
2868;SDS011;1442;47.448;8.582;2023-09-19T01:20:14;3.27;;;1.40;;
2868;SDS011;1442;47.448;8.582;2023-09-19T01:22:46;3.15;;;1.67;;
2868;SDS011;1442;47.448;8.582;2023-09-19T01:28:14;3.85;;;1.48;;
2868;SDS011;1442;47.448;8.582;2023-09-19T01:30:43;2.20;;;1.40;;
2868;SDS011;1442;47.448;8.582;2023-09-19T01:33:11;2.67;;;1.50;;
2868;SDS011;1442;47.448;8.582;2023-09-19T01:35:39;2.20;;;1.35;;
2868;SDS011;1442;47.448;8.582;2023-09-19T01:38:06;4.10;;;1.42;;
2868;SDS011;1442;47.448;8.582;2023-09-19T01:40:38;3.07;;;1.47;;
2868;SDS011;1442;47.448;8.582;2023-09-19T01:43:09;4.88;;;1.60;;
2868;SDS011;1442;47.448;8.582;2023-09-19T01:45:43;3.67;;;1.50;;
2868;SDS011;1442;47.448;8.582;2023-09-19T01:48:17;1.67;;;1.23;;
2868;SDS011;1442;47.448;8.582;2023-09-19T01:50:48;2.55;;;1.13;;
2868;SDS011;1442;47.448;8.582;2023-09-19T01:53:19;2.33;;;1.40;;
2868;SDS011;1442;47.448;8.582;2023-09-19T01:55:48;2.05;;;1.48;;
2868;SDS011;1442;47.448;8.582;2023-09-19T01:58:17;2.30;;;1.37;;
2868;SDS011;1442;47.448;8.582;2023-09-19T02:00:47;3.78;;;1.40;;
2868;SDS011;1442;47.448;8.582;2023-09-19T02:03:18;2.83;;;1.60;;
2868;SDS011;1442;47.448;8.582;2023-09-19T02:05:48;3.63;;;1.80;;
2868;SDS011;1442;47.448;8.582;2023-09-19T02:08:16;3.08;;;1.58;;
2868;SDS011;1442;47.448;8.582;2023-09-19T02:10:44;1.83;;;1.40;;
2868;SDS011;1442;47.448;8.582;2023-09-19T02:13:14;3.63;;;1.60;;
2868;SDS011;1442;47.448;8.582;2023-09-19T02:15:42;2.95;;;1.20;;
2868;SDS011;1442;47.448;8.582;2023-09-19T02:18:10;2.75;;;1.40;;
2868;SDS011;1442;47.448;8.582;2023-09-19T02:20:39;2.40;;;1.40;;
2868;SDS011;1442;47.448;8.582;2023-09-19T02:23:06;2.90;;;1.17;;
2868;SDS011;1442;47.448;8.582;2023-09-19T02:25:34;2.00;;;1.40;;
2868;SDS011;1442;47.448;8.582;2023-09-19T02:28:03;1.95;;;1.25;;
2868;SDS011;1442;47.448;8.582;2023-09-19T02:30:30;2.72;;;1.40;;
2868;SDS011;1442;47.448;8.582;2023-09-19T02:32:58;2.40;;;1.40;;
2868;SDS011;1442;47.448;8.582;2023-09-19T02:35:28;2.10;;;1.10;;
2868;SDS011;1442;47.448;8.582;2023-09-19T02:37:59;1.92;;;1.23;;
2868;SDS011;1442;47.448;8.582;2023-09-19T02:40:26;1.63;;;1.30;;
2868;SDS011;1442;47.448;8.582;2023-09-19T02:42:54;3.33;;;1.42;;
2868;SDS011;1442;47.448;8.582;2023-09-19T02:45:24;3.90;;;1.35;;
2868;SDS011;1442;47.448;8.582;2023-09-19T02:47:51;2.33;;;1.40;;
2868;SDS011;1442;47.448;8.582;2023-09-19T02:50:18;2.45;;;1.10;;
2868;SDS011;1442;47.448;8.582;2023-09-19T02:52:46;3.00;;;1.40;;
2868;SDS011;1442;47.448;8.582;2023-09-19T02:55:16;2.58;;;1.30;;
2868;SDS011;1442;47.448;8.582;2023-09-19T02:57:47;2.53;;;1.30;;
2868;SDS011;1442;47.448;8.582;2023-09-19T03:00:15;2.63;;;1.30;;
2868;SDS011;1442;47.448;8.582;2023-09-19T03:02:46;2.60;;;1.48;;
2868;SDS011;1442;47.448;8.582;2023-09-19T03:05:13;1.92;;;1.30;;
2868;SDS011;1442;47.448;8.582;2023-09-19T03:07:41;2.30;;;1.00;;
2868;SDS011;1442;47.448;8.582;2023-09-19T03:10:11;4.20;;;1.10;;
2868;SDS011;1442;47.448;8.582;2023-09-19T03:12:42;4.23;;;1.43;;
2868;SDS011;1442;47.448;8.582;2023-09-19T03:15:09;1.92;;;1.20;;
2868;SDS011;1442;47.448;8.582;2023-09-19T03:17:36;1.42;;;1.00;;
2868;SDS011;1442;47.448;8.582;2023-09-19T03:20:04;3.60;;;1.40;;
2868;SDS011;1442;47.448;8.582;2023-09-19T03:22:34;1.83;;;1.27;;
2868;SDS011;1442;47.448;8.582;2023-09-19T03:25:02;2.60;;;1.13;;
2868;SDS011;1442;47.448;8.582;2023-09-19T03:27:32;3.33;;;1.30;;
2868;SDS011;1442;47.448;8.582;2023-09-19T03:30:01;3.15;;;1.10;;
2868;SDS011;1442;47.448;8.582;2023-09-19T03:32:33;2.72;;;1.25;;
2868;SDS011;1442;47.448;8.582;2023-09-19T03:35:00;1.70;;;1.10;;
2868;SDS011;1442;47.448;8.582;2023-09-19T03:37:30;3.13;;;1.10;;
2868;SDS011;1442;47.448;8.582;2023-09-19T03:39:57;3.65;;;1.38;;
2868;SDS011;1442;47.448;8.582;2023-09-19T03:42:29;2.63;;;1.10;;
2868;SDS011;1442;47.448;8.582;2023-09-19T03:44:56;4.07;;;1.27;;
2868;SDS011;1442;47.448;8.582;2023-09-19T03:47:26;3.38;;;1.20;;
2868;SDS011;1442;47.448;8.582;2023-09-19T03:49:53;1.80;;;1.10;;
2868;SDS011;1442;47.448;8.582;2023-09-19T03:52:20;1.95;;;1.20;;
2868;SDS011;1442;47.448;8.582;2023-09-19T03:54:47;2.40;;;0.98;;
2868;SDS011;1442;47.448;8.582;2023-09-19T03:57:14;3.92;;;1.10;;
2868;SDS011;1442;47.448;8.582;2023-09-19T03:59:45;2.97;;;1.10;;
2868;SDS011;1442;47.448;8.582;2023-09-19T04:02:13;2.38;;;1.13;;
2868;SDS011;1442;47.448;8.582;2023-09-19T04:04:48;1.65;;;1.20;;
2868;SDS011;1442;47.448;8.582;2023-09-19T04:07:15;1.95;;;1.10;;
2868;SDS011;1442;47.448;8.582;2023-09-19T04:09:44;2.10;;;1.15;;
2868;SDS011;1442;47.448;8.582;2023-09-19T04:12:11;1.58;;;1.15;;
2868;SDS011;1442;47.448;8.582;2023-09-19T04:14:41;1.73;;;1.05;;
2868;SDS011;1442;47.448;8.582;2023-09-19T04:17:09;2.55;;;1.08;;
2868;SDS011;1442;47.448;8.582;2023-09-19T04:19:36;1.98;;;1.10;;
2868;SDS011;1442;47.448;8.582;2023-09-19T04:22:04;1.60;;;1.00;;
2868;SDS011;1442;47.448;8.582;2023-09-19T04:24:32;3.70;;;1.20;;
2868;SDS011;1442;47.448;8.582;2023-09-19T04:26:59;1.67;;;1.03;;
2868;SDS011;1442;47.448;8.582;2023-09-19T04:29:26;4.32;;;1.25;;
2868;SDS011;1442;47.448;8.582;2023-09-19T04:31:54;2.60;;;1.30;;
2868;SDS011;1442;47.448;8.582;2023-09-19T04:34:21;3.65;;;1.30;;
2868;SDS011;1442;47.448;8.582;2023-09-19T04:36:49;1.48;;;1.10;;
2868;SDS011;1442;47.448;8.582;2023-09-19T04:39:17;3.25;;;1.50;;
2868;SDS011;1442;47.448;8.582;2023-09-19T04:41:46;3.35;;;1.42;;
2868;SDS011;1442;47.448;8.582;2023-09-19T04:44:13;3.20;;;1.85;;
2868;SDS011;1442;47.448;8.582;2023-09-19T04:46:40;3.83;;;2.15;;
2868;SDS011;1442;47.448;8.582;2023-09-19T04:49:07;3.05;;;1.73;;
2868;SDS011;1442;47.448;8.582;2023-09-19T04:51:35;2.47;;;1.67;;
2868;SDS011;1442;47.448;8.582;2023-09-19T04:54:02;3.08;;;1.17;;
2868;SDS011;1442;47.448;8.582;2023-09-19T04:56:30;2.47;;;1.42;;
2868;SDS011;1442;47.448;8.582;2023-09-19T04:58:58;2.63;;;1.45;;
2868;SDS011;1442;47.448;8.582;2023-09-19T05:01:26;2.08;;;1.50;;
2868;SDS011;1442;47.448;8.582;2023-09-19T05:03:53;3.35;;;1.60;;
2868;SDS011;1442;47.448;8.582;2023-09-19T05:06:20;2.90;;;1.77;;
2868;SDS011;1442;47.448;8.582;2023-09-19T05:08:47;3.47;;;1.42;;
2868;SDS011;1442;47.448;8.582;2023-09-19T05:11:16;2.63;;;1.35;;
2868;SDS011;1442;47.448;8.582;2023-09-19T05:13:45;1.98;;;1.27;;
2868;SDS011;1442;47.448;8.582;2023-09-19T05:16:12;4.05;;;1.10;;
2868;SDS011;1442;47.448;8.582;2023-09-19T05:18:39;1.85;;;1.40;;
2868;SDS011;1442;47.448;8.582;2023-09-19T05:21:07;5.30;;;1.00;;
2868;SDS011;1442;47.448;8.582;2023-09-19T05:23:34;2.55;;;0.85;;
2868;SDS011;1442;47.448;8.582;2023-09-19T05:26:02;1.58;;;0.90;;
2868;SDS011;1442;47.448;8.582;2023-09-19T05:28:30;2.25;;;0.90;;
2868;SDS011;1442;47.448;8.582;2023-09-19T05:31:01;1.48;;;0.90;;
2868;SDS011;1442;47.448;8.582;2023-09-19T05:33:28;1.20;;;1.00;;
2868;SDS011;1442;47.448;8.582;2023-09-19T05:35:56;0.70;;;0.70;;
2868;SDS011;1442;47.448;8.582;2023-09-19T05:38:24;2.55;;;0.82;;
2868;SDS011;1442;47.448;8.582;2023-09-19T05:40:52;1.48;;;0.77;;
2868;SDS011;1442;47.448;8.582;2023-09-19T05:43:19;2.35;;;1.23;;
2868;SDS011;1442;47.448;8.582;2023-09-19T05:45:46;1.20;;;0.93;;
2868;SDS011;1442;47.448;8.582;2023-09-19T05:48:15;1.80;;;1.30;;
2868;SDS011;1442;47.448;8.582;2023-09-19T05:50:42;1.45;;;0.90;;
2868;SDS011;1442;47.448;8.582;2023-09-19T05:53:10;2.05;;;1.00;;
2868;SDS011;1442;47.448;8.582;2023-09-19T05:55:37;2.08;;;0.80;;
2868;SDS011;1442;47.448;8.582;2023-09-19T05:58:04;1.85;;;1.30;;
2868;SDS011;1442;47.448;8.582;2023-09-19T06:00:32;2.00;;;0.93;;
2868;SDS011;1442;47.448;8.582;2023-09-19T06:02:59;2.00;;;1.10;;
2868;SDS011;1442;47.448;8.582;2023-09-19T06:05:28;7.22;;;1.10;;
2868;SDS011;1442;47.448;8.582;2023-09-19T06:07:56;2.45;;;0.93;;
2868;SDS011;1442;47.448;8.582;2023-09-19T06:10:25;1.58;;;0.85;;
2868;SDS011;1442;47.448;8.582;2023-09-19T06:12:52;1.17;;;0.80;;
2868;SDS011;1442;47.448;8.582;2023-09-19T06:15:20;3.05;;;0.80;;
2868;SDS011;1442;47.448;8.582;2023-09-19T06:17:50;1.95;;;0.80;;
2868;SDS011;1442;47.448;8.582;2023-09-19T06:20:20;3.40;;;1.10;;
2868;SDS011;1442;47.448;8.582;2023-09-19T06:22:49;2.88;;;1.35;;
2868;SDS011;1442;47.448;8.582;2023-09-19T06:25:16;4.82;;;0.95;;
2868;SDS011;1442;47.448;8.582;2023-09-19T06:27:45;2.17;;;1.00;;
2868;SDS011;1442;47.448;8.582;2023-09-19T06:30:12;2.17;;;1.10;;
2868;SDS011;1442;47.448;8.582;2023-09-19T06:32:39;1.95;;;0.88;;
2868;SDS011;1442;47.448;8.582;2023-09-19T06:35:09;4.20;;;1.08;;
2868;SDS011;1442;47.448;8.582;2023-09-19T06:37:36;5.30;;;1.10;;
2868;SDS011;1442;47.448;8.582;2023-09-19T06:40:06;1.38;;;0.80;;
2868;SDS011;1442;47.448;8.582;2023-09-19T06:42:34;1.13;;;0.90;;
2868;SDS011;1442;47.448;8.582;2023-09-19T06:45:02;1.20;;;1.10;;
2868;SDS011;1442;47.448;8.582;2023-09-19T06:47:29;1.75;;;0.68;;
2868;SDS011;1442;47.448;8.582;2023-09-19T06:49:59;0.63;;;0.55;;
2868;SDS011;1442;47.448;8.582;2023-09-19T06:52:27;1.50;;;1.05;;
2868;SDS011;1442;47.448;8.582;2023-09-19T06:54:54;1.92;;;1.15;;
2868;SDS011;1442;47.448;8.582;2023-09-19T06:57:23;2.88;;;1.00;;
2868;SDS011;1442;47.448;8.582;2023-09-19T06:59:50;4.15;;;0.90;;
2868;SDS011;1442;47.448;8.582;2023-09-19T07:02:17;1.33;;;0.75;;
2868;SDS011;1442;47.448;8.582;2023-09-19T07:04:47;2.60;;;0.70;;
2868;SDS011;1442;47.448;8.582;2023-09-19T07:07:14;2.20;;;0.80;;
2868;SDS011;1442;47.448;8.582;2023-09-19T07:09:42;2.10;;;0.57;;
2868;SDS011;1442;47.448;8.582;2023-09-19T07:12:09;0.82;;;0.82;;
2868;SDS011;1442;47.448;8.582;2023-09-19T07:14:38;1.20;;;0.65;;
2868;SDS011;1442;47.448;8.582;2023-09-19T07:17:05;4.40;;;1.63;;
2868;SDS011;1442;47.448;8.582;2023-09-19T07:19:33;3.35;;;1.52;;
2868;SDS011;1442;47.448;8.582;2023-09-19T07:22:00;7.97;;;2.40;;
2868;SDS011;1442;47.448;8.582;2023-09-19T07:24:27;7.53;;;2.15;;
2868;SDS011;1442;47.448;8.582;2023-09-19T07:26:55;2.80;;;1.00;;
2868;SDS011;1442;47.448;8.582;2023-09-19T07:29:22;3.72;;;1.27;;
2868;SDS011;1442;47.448;8.582;2023-09-19T07:31:52;1.15;;;0.65;;
2868;SDS011;1442;47.448;8.582;2023-09-19T07:34:19;2.25;;;1.00;;
2868;SDS011;1442;47.448;8.582;2023-09-19T07:36:48;1.73;;;0.90;;
2868;SDS011;1442;47.448;8.582;2023-09-19T07:39:15;0.85;;;0.77;;
2868;SDS011;1442;47.448;8.582;2023-09-19T07:41:43;1.10;;;0.63;;
2868;SDS011;1442;47.448;8.582;2023-09-19T07:44:11;3.88;;;0.70;;
2868;SDS011;1442;47.448;8.582;2023-09-19T07:46:38;2.28;;;0.90;;
2868;SDS011;1442;47.448;8.582;2023-09-19T07:49:07;3.53;;;1.08;;
2868;SDS011;1442;47.448;8.582;2023-09-19T07:51:35;3.80;;;1.08;;
2868;SDS011;1442;47.448;8.582;2023-09-19T07:56:30;1.30;;;1.10;;
2868;SDS011;1442;47.448;8.582;2023-09-19T07:58:59;2.95;;;0.93;;
2868;SDS011;1442;47.448;8.582;2023-09-19T08:03:53;6.10;;;1.00;;
2868;SDS011;1442;47.448;8.582;2023-09-19T08:06:21;7.18;;;1.02;;
2868;SDS011;1442;47.448;8.582;2023-09-19T08:08:50;1.67;;;1.45;;
2868;SDS011;1442;47.448;8.582;2023-09-19T08:11:20;3.53;;;1.17;;
2868;SDS011;1442;47.448;8.582;2023-09-19T08:13:49;3.90;;;0.90;;
2868;SDS011;1442;47.448;8.582;2023-09-19T08:16:17;1.63;;;0.93;;
2868;SDS011;1442;47.448;8.582;2023-09-19T08:18:47;3.80;;;1.20;;
2868;SDS011;1442;47.448;8.582;2023-09-19T08:21:20;5.13;;;1.20;;
2868;SDS011;1442;47.448;8.582;2023-09-19T08:23:48;1.85;;;0.95;;
2868;SDS011;1442;47.448;8.582;2023-09-19T08:26:15;3.50;;;1.05;;
2868;SDS011;1442;47.448;8.582;2023-09-19T08:33:37;1.67;;;1.02;;
2868;SDS011;1442;47.448;8.582;2023-09-19T08:38:33;3.70;;;1.35;;
2868;SDS011;1442;47.448;8.582;2023-09-19T08:41:05;1.77;;;1.10;;
2868;SDS011;1442;47.448;8.582;2023-09-19T08:43:32;2.92;;;1.20;;
2868;SDS011;1442;47.448;8.582;2023-09-19T08:46:02;4.03;;;1.38;;
2868;SDS011;1442;47.448;8.582;2023-09-19T08:48:30;2.90;;;1.00;;
2868;SDS011;1442;47.448;8.582;2023-09-19T08:51:00;3.63;;;1.17;;
2868;SDS011;1442;47.448;8.582;2023-09-19T08:53:31;2.30;;;0.80;;
2868;SDS011;1442;47.448;8.582;2023-09-19T08:56:04;2.08;;;0.90;;
2868;SDS011;1442;47.448;8.582;2023-09-19T08:58:34;2.28;;;0.93;;
2868;SDS011;1442;47.448;8.582;2023-09-19T09:01:05;1.50;;;1.10;;
2868;SDS011;1442;47.448;8.582;2023-09-19T09:03:35;1.92;;;0.90;;
2868;SDS011;1442;47.448;8.582;2023-09-19T09:06:03;2.30;;;1.00;;
2868;SDS011;1442;47.448;8.582;2023-09-19T09:08:31;4.53;;;1.03;;
2868;SDS011;1442;47.448;8.582;2023-09-19T09:10:58;5.20;;;1.30;;
2868;SDS011;1442;47.448;8.582;2023-09-19T09:13:27;1.65;;;1.10;;
2868;SDS011;1442;47.448;8.582;2023-09-19T09:15:56;3.47;;;1.35;;
2868;SDS011;1442;47.448;8.582;2023-09-19T09:18:24;2.97;;;1.15;;
2868;SDS011;1442;47.448;8.582;2023-09-19T09:20:51;2.70;;;1.30;;
2868;SDS011;1442;47.448;8.582;2023-09-19T09:23:20;2.05;;;1.02;;
2868;SDS011;1442;47.448;8.582;2023-09-19T09:25:47;1.80;;;1.00;;
2868;SDS011;1442;47.448;8.582;2023-09-19T09:28:19;2.30;;;1.33;;
2868;SDS011;1442;47.448;8.582;2023-09-19T09:30:48;2.40;;;1.05;;
2868;SDS011;1442;47.448;8.582;2023-09-19T09:33:16;2.90;;;1.40;;
2868;SDS011;1442;47.448;8.582;2023-09-19T09:35:47;2.38;;;1.17;;
2868;SDS011;1442;47.448;8.582;2023-09-19T09:38:17;3.45;;;1.23;;
2868;SDS011;1442;47.448;8.582;2023-09-19T09:40:48;2.20;;;1.27;;
2868;SDS011;1442;47.448;8.582;2023-09-19T09:43:29;2.53;;;1.20;;
2868;SDS011;1442;47.448;8.582;2023-09-19T09:49:07;2.05;;;1.20;;
2868;SDS011;1442;47.448;8.582;2023-09-19T09:51:58;3.30;;;1.23;;
2868;SDS011;1442;47.448;8.582;2023-09-19T09:54:26;2.38;;;1.10;;
2868;SDS011;1442;47.448;8.582;2023-09-19T09:56:59;3.22;;;1.55;;
2868;SDS011;1442;47.448;8.582;2023-09-19T10:02:12;2.15;;;1.15;;
2868;SDS011;1442;47.448;8.582;2023-09-19T10:04:46;2.28;;;1.20;;
2868;SDS011;1442;47.448;8.582;2023-09-19T10:07:38;2.17;;;1.20;;
2868;SDS011;1442;47.448;8.582;2023-09-19T10:10:08;2.43;;;1.47;;
2868;SDS011;1442;47.448;8.582;2023-09-19T10:12:47;3.00;;;1.27;;
2868;SDS011;1442;47.448;8.582;2023-09-19T10:15:15;1.85;;;1.10;;
2868;SDS011;1442;47.448;8.582;2023-09-19T10:17:45;1.80;;;1.17;;
2868;SDS011;1442;47.448;8.582;2023-09-19T10:20:14;3.83;;;1.42;;
2868;SDS011;1442;47.448;8.582;2023-09-19T10:22:58;2.70;;;1.15;;
2868;SDS011;1442;47.448;8.582;2023-09-19T10:25:26;3.55;;;1.10;;
2868;SDS011;1442;47.448;8.582;2023-09-19T10:27:55;4.35;;;1.23;;
2868;SDS011;1442;47.448;8.582;2023-09-19T10:30:24;2.40;;;1.30;;
2868;SDS011;1442;47.448;8.582;2023-09-19T10:32:57;2.90;;;1.33;;
2868;SDS011;1442;47.448;8.582;2023-09-19T10:35:26;1.95;;;1.30;;
2868;SDS011;1442;47.448;8.582;2023-09-19T10:37:54;2.50;;;1.00;;
2868;SDS011;1442;47.448;8.582;2023-09-19T10:40:21;2.42;;;1.10;;
2868;SDS011;1442;47.448;8.582;2023-09-19T10:42:55;2.67;;;1.10;;
2868;SDS011;1442;47.448;8.582;2023-09-19T10:45:25;2.70;;;1.20;;
2868;SDS011;1442;47.448;8.582;2023-09-19T10:47:54;2.05;;;1.38;;
2868;SDS011;1442;47.448;8.582;2023-09-19T10:50:22;1.25;;;1.08;;
2868;SDS011;1442;47.448;8.582;2023-09-19T10:52:52;2.65;;;1.33;;
2868;SDS011;1442;47.448;8.582;2023-09-19T10:55:25;4.45;;;1.70;;
2868;SDS011;1442;47.448;8.582;2023-09-19T10:57:55;2.67;;;1.50;;
2868;SDS011;1442;47.448;8.582;2023-09-19T11:00:49;2.53;;;1.58;;
2868;SDS011;1442;47.448;8.582;2023-09-19T11:03:16;3.80;;;1.50;;
2868;SDS011;1442;47.448;8.582;2023-09-19T11:06:00;1.80;;;1.27;;
2868;SDS011;1442;47.448;8.582;2023-09-19T11:08:31;4.33;;;1.60;;
2868;SDS011;1442;47.448;8.582;2023-09-19T11:14:13;2.00;;;1.20;;
2868;SDS011;1442;47.448;8.582;2023-09-19T11:16:42;2.43;;;1.27;;
2868;SDS011;1442;47.448;8.582;2023-09-19T11:22:13;3.38;;;1.48;;
2868;SDS011;1442;47.448;8.582;2023-09-19T11:24:42;2.50;;;1.17;;
2868;SDS011;1442;47.448;8.582;2023-09-19T11:27:19;2.80;;;1.35;;
2868;SDS011;1442;47.448;8.582;2023-09-19T11:29:46;2.63;;;1.37;;
2868;SDS011;1442;47.448;8.582;2023-09-19T11:32:14;1.50;;;1.10;;
2868;SDS011;1442;47.448;8.582;2023-09-19T11:34:45;2.28;;;1.38;;
2868;SDS011;1442;47.448;8.582;2023-09-19T11:40:07;1.40;;;1.20;;
2868;SDS011;1442;47.448;8.582;2023-09-19T11:42:41;4.20;;;1.70;;
2868;SDS011;1442;47.448;8.582;2023-09-19T11:47:50;3.03;;;1.70;;
2868;SDS011;1442;47.448;8.582;2023-09-19T11:50:18;3.65;;;1.60;;
2868;SDS011;1442;47.448;8.582;2023-09-19T11:52:46;3.50;;;1.50;;
2868;SDS011;1442;47.448;8.582;2023-09-19T11:55:15;2.83;;;1.40;;
2868;SDS011;1442;47.448;8.582;2023-09-19T11:57:46;3.35;;;1.20;;
2868;SDS011;1442;47.448;8.582;2023-09-19T12:00:16;2.37;;;1.30;;
2868;SDS011;1442;47.448;8.582;2023-09-19T12:02:45;3.05;;;1.33;;
2868;SDS011;1442;47.448;8.582;2023-09-19T12:05:13;2.90;;;1.42;;
2868;SDS011;1442;47.448;8.582;2023-09-19T12:07:42;3.43;;;1.27;;
2868;SDS011;1442;47.448;8.582;2023-09-19T12:10:11;3.50;;;1.10;;
2868;SDS011;1442;47.448;8.582;2023-09-19T12:12:45;1.88;;;1.20;;
2868;SDS011;1442;47.448;8.582;2023-09-19T12:15:13;2.53;;;1.10;;
2868;SDS011;1442;47.448;8.582;2023-09-19T12:17:41;4.60;;;1.40;;
2868;SDS011;1442;47.448;8.582;2023-09-19T12:20:10;2.33;;;1.30;;
2868;SDS011;1442;47.448;8.582;2023-09-19T12:22:39;3.83;;;1.38;;
2868;SDS011;1442;47.448;8.582;2023-09-19T12:25:08;3.25;;;1.65;;
2868;SDS011;1442;47.448;8.582;2023-09-19T12:27:41;3.38;;;1.65;;
2868;SDS011;1442;47.448;8.582;2023-09-19T12:30:11;2.92;;;1.50;;
2868;SDS011;1442;47.448;8.582;2023-09-19T12:32:39;1.90;;;1.08;;
2868;SDS011;1442;47.448;8.582;2023-09-19T12:35:07;3.33;;;1.35;;
2868;SDS011;1442;47.448;8.582;2023-09-19T12:37:36;2.78;;;1.52;;
2868;SDS011;1442;47.448;8.582;2023-09-19T12:40:03;3.03;;;1.25;;
2868;SDS011;1442;47.448;8.582;2023-09-19T12:42:42;1.52;;;1.08;;
2868;SDS011;1442;47.448;8.582;2023-09-19T12:45:11;3.53;;;1.52;;
2868;SDS011;1442;47.448;8.582;2023-09-19T12:47:40;1.27;;;0.90;;
2868;SDS011;1442;47.448;8.582;2023-09-19T12:50:09;2.92;;;1.25;;
2868;SDS011;1442;47.448;8.582;2023-09-19T12:52:42;2.03;;;1.20;;
2868;SDS011;1442;47.448;8.582;2023-09-19T12:55:19;5.57;;;1.48;;
2868;SDS011;1442;47.448;8.582;2023-09-19T12:57:56;3.50;;;1.10;;
2868;SDS011;1442;47.448;8.582;2023-09-19T13:00:32;3.08;;;1.30;;
2868;SDS011;1442;47.448;8.582;2023-09-19T13:03:11;3.17;;;1.30;;
2868;SDS011;1442;47.448;8.582;2023-09-19T13:05:47;2.80;;;1.33;;
2868;SDS011;1442;47.448;8.582;2023-09-19T13:08:18;3.05;;;1.40;;
2868;SDS011;1442;47.448;8.582;2023-09-19T13:11:04;3.57;;;1.20;;
2868;SDS011;1442;47.448;8.582;2023-09-19T13:13:36;1.90;;;1.08;;
2868;SDS011;1442;47.448;8.582;2023-09-19T13:16:05;3.43;;;1.17;;
2868;SDS011;1442;47.448;8.582;2023-09-19T13:18:42;3.90;;;1.20;;
2868;SDS011;1442;47.448;8.582;2023-09-19T13:21:11;4.75;;;1.40;;
2868;SDS011;1442;47.448;8.582;2023-09-19T13:23:40;3.95;;;1.52;;
2868;SDS011;1442;47.448;8.582;2023-09-19T13:26:08;3.88;;;1.30;;
2868;SDS011;1442;47.448;8.582;2023-09-19T13:28:37;1.88;;;1.10;;
2868;SDS011;1442;47.448;8.582;2023-09-19T13:31:05;2.92;;;1.20;;
2868;SDS011;1442;47.448;8.582;2023-09-19T13:33:34;1.10;;;1.00;;
2868;SDS011;1442;47.448;8.582;2023-09-19T13:36:01;2.63;;;1.07;;
2868;SDS011;1442;47.448;8.582;2023-09-19T13:38:29;1.92;;;1.20;;
2868;SDS011;1442;47.448;8.582;2023-09-19T13:40:57;3.37;;;1.17;;
2868;SDS011;1442;47.448;8.582;2023-09-19T13:43:25;5.10;;;1.33;;
2868;SDS011;1442;47.448;8.582;2023-09-19T13:45:54;3.88;;;1.40;;
2868;SDS011;1442;47.448;8.582;2023-09-19T13:48:24;2.92;;;1.30;;
2868;SDS011;1442;47.448;8.582;2023-09-19T13:50:51;2.80;;;1.20;;
2868;SDS011;1442;47.448;8.582;2023-09-19T13:53:18;2.03;;;1.08;;
2868;SDS011;1442;47.448;8.582;2023-09-19T13:55:46;2.38;;;1.30;;
2868;SDS011;1442;47.448;8.582;2023-09-19T13:58:13;2.57;;;1.10;;
2868;SDS011;1442;47.448;8.582;2023-09-19T14:00:40;2.90;;;1.30;;
2868;SDS011;1442;47.448;8.582;2023-09-19T14:03:08;1.65;;;1.23;;
2868;SDS011;1442;47.448;8.582;2023-09-19T14:05:37;2.05;;;1.13;;
2868;SDS011;1442;47.448;8.582;2023-09-19T14:08:04;4.53;;;1.20;;
2868;SDS011;1442;47.448;8.582;2023-09-19T14:10:31;3.17;;;1.20;;
2868;SDS011;1442;47.448;8.582;2023-09-19T14:12:59;5.18;;;1.27;;
2868;SDS011;1442;47.448;8.582;2023-09-19T14:15:27;3.57;;;1.13;;
2868;SDS011;1442;47.448;8.582;2023-09-19T14:17:56;4.97;;;1.20;;
2868;SDS011;1442;47.448;8.582;2023-09-19T14:20:24;1.42;;;1.00;;
2868;SDS011;1442;47.448;8.582;2023-09-19T14:22:53;2.38;;;1.10;;
2868;SDS011;1442;47.448;8.582;2023-09-19T14:25:21;4.18;;;1.20;;
2868;SDS011;1442;47.448;8.582;2023-09-19T14:27:48;3.00;;;1.00;;
2868;SDS011;1442;47.448;8.582;2023-09-19T14:30:15;5.03;;;1.05;;
2868;SDS011;1442;47.448;8.582;2023-09-19T14:32:42;2.55;;;1.10;;
2868;SDS011;1442;47.448;8.582;2023-09-19T14:35:09;3.30;;;1.20;;
2868;SDS011;1442;47.448;8.582;2023-09-19T14:37:40;2.60;;;1.17;;
2868;SDS011;1442;47.448;8.582;2023-09-19T14:40:09;2.33;;;1.15;;
2868;SDS011;1442;47.448;8.582;2023-09-19T14:42:38;1.92;;;1.25;;
2868;SDS011;1442;47.448;8.582;2023-09-19T14:45:06;1.70;;;1.20;;
2868;SDS011;1442;47.448;8.582;2023-09-19T14:47:34;4.32;;;1.23;;
2868;SDS011;1442;47.448;8.582;2023-09-19T14:50:02;2.25;;;1.17;;
2868;SDS011;1442;47.448;8.582;2023-09-19T14:52:31;2.25;;;1.10;;
2868;SDS011;1442;47.448;8.582;2023-09-19T14:54:58;1.17;;;1.00;;
2868;SDS011;1442;47.448;8.582;2023-09-19T14:57:28;2.08;;;1.30;;
2868;SDS011;1442;47.448;8.582;2023-09-19T14:59:55;2.17;;;1.30;;
2868;SDS011;1442;47.448;8.582;2023-09-19T15:02:23;3.10;;;1.30;;
2868;SDS011;1442;47.448;8.582;2023-09-19T15:04:51;4.23;;;1.37;;
2868;SDS011;1442;47.448;8.582;2023-09-19T15:07:18;4.38;;;1.20;;
2868;SDS011;1442;47.448;8.582;2023-09-19T15:09:45;2.17;;;1.08;;
2868;SDS011;1442;47.448;8.582;2023-09-19T15:12:12;1.38;;;1.27;;
2868;SDS011;1442;47.448;8.582;2023-09-19T15:14:41;1.17;;;1.08;;
2868;SDS011;1442;47.448;8.582;2023-09-19T15:17:08;4.57;;;1.42;;
2868;SDS011;1442;47.448;8.582;2023-09-19T15:19:35;1.95;;;1.20;;
2868;SDS011;1442;47.448;8.582;2023-09-19T15:22:03;3.05;;;1.20;;
2868;SDS011;1442;47.448;8.582;2023-09-19T15:24:32;3.22;;;1.45;;
2868;SDS011;1442;47.448;8.582;2023-09-19T15:26:59;2.80;;;1.30;;
2868;SDS011;1442;47.448;8.582;2023-09-19T15:29:26;2.28;;;1.20;;
2868;SDS011;1442;47.448;8.582;2023-09-19T15:31:56;3.78;;;1.50;;
2868;SDS011;1442;47.448;8.582;2023-09-19T15:34:27;1.45;;;1.20;;
2868;SDS011;1442;47.448;8.582;2023-09-19T15:36:55;2.08;;;1.13;;
2868;SDS011;1442;47.448;8.582;2023-09-19T15:39:22;3.30;;;1.35;;
2868;SDS011;1442;47.448;8.582;2023-09-19T15:41:49;3.50;;;1.50;;
2868;SDS011;1442;47.448;8.582;2023-09-19T15:44:17;3.43;;;1.57;;
2868;SDS011;1442;47.448;8.582;2023-09-19T15:46:45;2.95;;;1.48;;
2868;SDS011;1442;47.448;8.582;2023-09-19T15:49:14;1.63;;;1.20;;
2868;SDS011;1442;47.448;8.582;2023-09-19T15:51:41;3.17;;;1.48;;
2868;SDS011;1442;47.448;8.582;2023-09-19T15:54:09;2.72;;;1.42;;
2868;SDS011;1442;47.448;8.582;2023-09-19T15:56:36;2.33;;;1.20;;
2868;SDS011;1442;47.448;8.582;2023-09-19T15:59:06;2.47;;;1.55;;